createdAt,value
2018-10-21T00:00:40.657Z,90.10
2018-10-21T00:02:44.847Z,90.00
2018-10-21T00:04:50.816Z,90.20
2018-10-21T00:06:54.781Z,90.10
2018-10-21T00:08:58.849Z,90.10
2018-10-21T00:11:02.709Z,90.20
2018-10-21T00:13:07.513Z,90.30
2018-10-21T00:15:15.424Z,90.30
2018-10-21T00:17:19.922Z,90.40
2018-10-21T00:19:24.187Z,90.30
2018-10-21T00:21:28.440Z,90.30
2018-10-21T00:23:33.978Z,90.30
2018-10-21T00:25:37.904Z,90.20
2018-10-21T00:27:42.050Z,90.10
2018-10-21T00:29:46.609Z,90.10
2018-10-21T00:31:52.415Z,90.20
2018-10-21T00:33:57.214Z,90.10
2018-10-21T00:36:01.393Z,90.00
2018-10-21T00:38:06.027Z,89.80
2018-10-21T00:40:10.180Z,89.60
2018-10-21T00:42:15.433Z,89.60
2018-10-21T00:44:19.423Z,89.70
2018-10-21T00:46:23.428Z,90.40
2018-10-21T00:48:27.687Z,90.50
2018-10-21T00:50:31.841Z,90.60
2018-10-21T00:52:35.705Z,90.40
2018-10-21T00:54:40.130Z,90.50
2018-10-21T00:56:45.497Z,90.40
2018-10-21T00:58:49.479Z,90.60
2018-10-21T01:00:53.906Z,90.70
2018-10-21T01:02:57.993Z,90.80
2018-10-21T01:05:01.916Z,90.80
2018-10-21T01:07:06.582Z,91.00
2018-10-21T01:09:13.443Z,90.90
2018-10-21T01:13:22.670Z,90.90
2018-10-21T01:15:27.223Z,90.70
2018-10-21T01:17:31.149Z,90.80
2018-10-21T01:19:35.388Z,91.10
2018-10-21T01:21:39.542Z,91.20
2018-10-21T01:23:43.401Z,91.40
2018-10-21T01:25:48.726Z,91.70
2018-10-21T01:27:53.647Z,91.90
2018-10-21T01:29:57.796Z,92.00
2018-10-21T01:32:02.356Z,92.10
2018-10-21T01:34:06.597Z,92.20
2018-10-21T01:36:10.848Z,92.10
2018-10-21T01:38:15.346Z,92.00
2018-10-21T01:40:43.086Z,91.90
2018-10-21T01:42:47.337Z,91.90
2018-10-21T01:44:51.638Z,91.80
2018-10-21T01:46:56.863Z,92.00
2018-10-21T01:49:00.915Z,91.90
2018-10-21T01:51:04.802Z,91.90
2018-10-21T01:55:19.928Z,91.90
2018-10-21T01:57:24.146Z,92.20
2018-10-21T01:59:28.598Z,92.30
2018-10-21T02:01:32.513Z,92.20
2018-10-21T02:03:36.602Z,92.50
2018-10-21T02:05:41.671Z,92.80
2018-10-21T02:07:45.633Z,93.10
2018-10-21T02:09:50.511Z,93.40
2018-10-21T02:11:54.729Z,93.50
2018-10-21T02:13:58.608Z,93.70
2018-10-21T02:16:02.564Z,93.90
2018-10-21T02:18:06.867Z,94.10
2018-10-21T02:20:12.098Z,94.40
2018-10-21T02:22:16.815Z,94.50
2018-10-21T02:24:20.878Z,94.20
2018-10-21T02:26:24.980Z,94.50
2018-10-21T02:28:30.523Z,94.50
2018-10-21T02:30:35.753Z,94.60
2018-10-21T02:32:39.958Z,94.70
2018-10-21T02:34:43.929Z,94.90
2018-10-21T02:36:48.232Z,95.00
2018-10-21T02:38:52.735Z,95.10
2018-10-21T02:41:34.092Z,95.60
2018-10-21T02:43:38.257Z,95.40
2018-10-21T02:45:42.371Z,95.40
2018-10-21T02:47:46.357Z,95.50
2018-10-21T02:49:50.335Z,95.40
2018-10-21T02:51:59.972Z,95.50
2018-10-21T02:54:03.971Z,95.80
2018-10-21T02:56:09.681Z,96.10
2018-10-21T02:58:14.772Z,96.50
2018-10-21T03:00:18.741Z,96.30
2018-10-21T03:02:22.779Z,96.40
2018-10-21T03:04:27.074Z,96.50
2018-10-21T03:06:31.229Z,96.80
2018-10-21T03:08:36.758Z,97.10
2018-10-21T03:10:42.091Z,97.00
2018-10-21T03:12:45.997Z,96.50
2018-10-21T03:14:50.145Z,96.70
2018-10-21T03:16:54.726Z,96.80
2018-10-21T03:18:58.862Z,96.70
2018-10-21T03:21:04.547Z,96.90
2018-10-21T03:23:09.365Z,97.00
2018-10-21T03:25:14.729Z,96.80
2018-10-21T03:27:18.765Z,96.60
2018-10-21T03:29:22.639Z,96.40
2018-10-21T03:31:26.962Z,96.60
2018-10-21T03:33:31.314Z,96.70
2018-10-21T03:35:35.322Z,96.80
2018-10-21T03:37:39.570Z,97.00
2018-10-21T03:39:43.627Z,97.10
2018-10-21T03:41:47.716Z,97.40
2018-10-21T03:43:53.056Z,97.40
2018-10-21T03:45:57.160Z,97.50
2018-10-21T03:48:01.970Z,97.70
2018-10-21T03:50:06.095Z,97.60
2018-10-21T03:52:09.991Z,97.50
2018-10-21T03:54:14.132Z,97.20
2018-10-21T03:56:18.576Z,97.30
2018-10-21T03:58:22.578Z,97.30
2018-10-21T04:00:26.626Z,97.30
2018-10-21T04:02:30.533Z,97.30
2018-10-21T04:04:34.526Z,97.40
2018-10-21T04:06:38.544Z,96.90
2018-10-21T04:08:43.559Z,96.70
2018-10-21T04:10:47.628Z,96.40
2018-10-21T04:12:51.732Z,96.60
2018-10-21T04:14:55.998Z,96.70
2018-10-21T04:17:00.645Z,96.80
2018-10-21T04:19:04.815Z,96.50
2018-10-21T04:21:08.723Z,96.00
2018-10-21T04:23:12.980Z,95.70
2018-10-21T04:25:17.197Z,95.40
2018-10-21T04:27:21.280Z,95.10
2018-10-21T04:29:25.727Z,94.90
2018-10-21T04:31:29.836Z,94.70
2018-10-21T04:33:40.226Z,94.50
2018-10-21T04:35:44.707Z,94.30
2018-10-21T04:38:38.638Z,94.20
2018-10-21T04:40:42.810Z,94.10
2018-10-21T04:42:47.436Z,94.20
2018-10-21T04:44:51.586Z,94.10
2018-10-21T04:46:56.788Z,94.20
2018-10-21T04:49:00.776Z,94.30
2018-10-21T04:51:05.394Z,94.90
2018-10-21T04:53:09.492Z,95.30
2018-10-21T04:55:17.067Z,95.90
2018-10-21T04:57:21.196Z,95.60
2018-10-21T04:59:25.219Z,95.80
2018-10-21T05:01:29.496Z,95.40
2018-10-21T05:03:33.357Z,95.40
2018-10-21T05:05:37.337Z,95.80
2018-10-21T05:07:42.596Z,95.70
2018-10-21T05:09:46.521Z,95.20
2018-10-21T05:11:50.496Z,95.00
2018-10-21T05:13:54.467Z,94.90
2018-10-21T05:15:58.437Z,94.90
2018-10-21T05:18:02.481Z,94.90
2018-10-21T05:20:06.879Z,94.80
2018-10-21T05:22:10.919Z,94.80
2018-10-21T05:24:15.421Z,94.90
2018-10-21T05:26:19.344Z,94.80
2018-10-21T05:28:23.363Z,94.70
2018-10-21T05:30:27.966Z,94.80
2018-10-21T05:32:32.360Z,94.60
2018-10-21T05:34:36.569Z,94.50
2018-10-21T05:36:40.603Z,94.60
2018-10-21T05:38:45.736Z,95.10
2018-10-21T05:40:49.750Z,95.40
2018-10-21T05:42:53.627Z,95.50
2018-10-21T05:45:00.273Z,95.40
2018-10-21T05:47:04.538Z,95.50
2018-10-21T05:49:08.910Z,95.40
2018-10-21T05:51:13.414Z,95.30
2018-10-21T05:53:17.300Z,96.00
2018-10-21T05:55:21.490Z,96.40
2018-10-21T05:57:25.790Z,97.00
2018-10-21T05:59:31.734Z,97.20
2018-10-21T06:01:35.601Z,97.40
2018-10-21T06:03:39.876Z,97.50
2018-10-21T06:05:48.180Z,97.60
2018-10-21T06:07:52.059Z,97.60
2018-10-21T06:09:56.557Z,97.80
2018-10-21T06:12:00.820Z,97.90
2018-10-21T06:14:05.198Z,97.80
2018-10-21T06:16:09.551Z,98.10
2018-10-21T06:18:17.227Z,98.20
2018-10-21T06:20:29.288Z,98.20
2018-10-21T06:22:40.113Z,97.70
2018-10-21T06:24:44.052Z,97.30
2018-10-21T06:26:54.529Z,96.90
2018-10-21T06:28:58.776Z,96.50
2018-10-21T06:31:02.847Z,96.40
2018-10-21T06:33:06.910Z,96.50
2018-10-21T06:35:11.064Z,96.40
2018-10-21T06:37:15.066Z,96.20
2018-10-21T06:39:19.396Z,96.10
2018-10-21T06:41:23.796Z,96.40
2018-10-21T06:43:30.080Z,96.00
2018-10-21T06:45:35.555Z,96.20
2018-10-21T06:47:39.548Z,96.10
2018-10-21T06:49:43.553Z,96.30
2018-10-21T06:51:48.729Z,96.30
2018-10-21T06:53:53.062Z,96.20
2018-10-21T06:55:57.051Z,96.20
2018-10-21T06:58:01.034Z,96.00
2018-10-21T07:00:06.055Z,96.10
2018-10-21T07:02:09.984Z,96.40
2018-10-21T07:04:14.264Z,97.00
2018-10-21T07:06:22.325Z,96.60
2018-10-21T07:08:26.308Z,96.60
2018-10-21T07:10:30.241Z,96.40
2018-10-21T07:12:34.547Z,96.20
2018-10-21T07:14:38.504Z,96.20
2018-10-21T07:16:43.077Z,95.90
2018-10-21T07:18:48.309Z,95.90
2018-10-21T07:20:52.232Z,96.00
2018-10-21T07:22:57.391Z,96.10
2018-10-21T07:25:05.314Z,95.90
2018-10-21T07:27:10.948Z,95.80
2018-10-21T07:29:15.749Z,96.00
2018-10-21T07:31:19.726Z,95.50
2018-10-21T07:33:23.700Z,95.30
2018-10-21T07:35:28.413Z,95.20
2018-10-21T07:37:33.728Z,95.50
2018-10-21T07:39:38.864Z,95.30
2018-10-21T07:41:43.080Z,95.40
2018-10-21T07:43:48.149Z,95.20
2018-10-21T07:45:52.022Z,95.40
2018-10-21T07:47:56.799Z,95.60
2018-10-21T07:50:01.456Z,95.70
2018-10-21T07:52:05.860Z,95.50
2018-10-21T07:54:09.758Z,95.40
2018-10-21T07:56:14.275Z,95.40
2018-10-21T07:58:18.303Z,95.00
2018-10-21T08:00:25.010Z,94.70
2018-10-21T08:02:30.067Z,94.20
2018-10-21T08:04:35.196Z,93.60
2018-10-21T08:06:50.087Z,93.10
2018-10-21T08:08:56.927Z,92.90
2018-10-21T08:11:00.910Z,92.20
2018-10-21T08:13:06.530Z,91.70
2018-10-21T08:15:13.721Z,91.50
2018-10-21T08:17:18.554Z,91.60
2018-10-21T08:19:23.642Z,91.60
2018-10-21T08:21:29.709Z,91.50
2018-10-21T08:23:33.977Z,91.30
2018-10-21T08:25:38.256Z,91.70
2018-10-21T08:27:42.262Z,91.50
2018-10-21T08:29:48.783Z,91.50
2018-10-21T08:31:52.729Z,91.30
2018-10-21T08:33:58.395Z,91.10
2018-10-21T08:36:02.513Z,91.10
2018-10-21T08:38:06.633Z,90.60
2018-10-21T08:40:10.853Z,90.20
2018-10-21T08:42:15.496Z,90.10
2018-10-21T08:44:20.322Z,90.30
2018-10-21T08:46:25.428Z,90.20
2018-10-21T08:48:31.409Z,90.00
2018-10-21T08:50:35.412Z,90.00
2018-10-21T08:52:39.374Z,89.80
2018-10-21T08:54:43.350Z,89.20
2018-10-21T08:56:49.473Z,88.40
2018-10-21T08:58:53.384Z,88.20
2018-10-21T09:00:57.730Z,87.90
2018-10-21T09:03:02.345Z,87.50
2018-10-21T09:05:08.916Z,87.00
2018-10-21T09:07:14.137Z,86.30
2018-10-21T09:09:18.324Z,86.20
2018-10-21T09:11:25.550Z,86.00
2018-10-21T09:13:30.733Z,84.90
2018-10-21T09:15:38.703Z,84.20
2018-10-21T09:17:45.309Z,83.50
2018-10-21T09:19:50.687Z,83.40
2018-10-21T09:21:55.412Z,81.30
2018-10-21T09:24:02.004Z,81.00
2018-10-21T09:26:06.958Z,80.70
2018-10-21T09:28:13.665Z,80.00
2018-10-21T09:30:19.553Z,79.70
2018-10-21T09:32:23.489Z,79.20
2018-10-21T09:34:28.071Z,78.80
2018-10-21T09:36:35.165Z,78.60
2018-10-21T09:38:39.462Z,77.70
2018-10-21T09:40:43.680Z,76.50
2018-10-21T09:42:50.895Z,76.80
2018-10-21T09:44:56.406Z,77.10
2018-10-21T09:47:01.752Z,76.00
2018-10-21T09:49:06.348Z,76.80
2018-10-21T09:51:10.436Z,77.40
2018-10-21T09:53:16.727Z,76.20
2018-10-21T09:55:21.891Z,76.90
2018-10-21T09:57:25.779Z,76.20
2018-10-21T09:59:31.064Z,76.20
2018-10-21T10:01:41.397Z,76.20
2018-10-21T10:03:46.377Z,76.20
2018-10-21T10:05:51.342Z,75.90
2018-10-21T10:07:56.793Z,76.00
2018-10-21T10:10:00.771Z,74.50
2018-10-21T10:12:04.805Z,73.70
2018-10-21T10:14:08.992Z,73.30
2018-10-21T10:16:12.904Z,72.50
2018-10-21T10:18:18.318Z,71.80
2018-10-21T10:20:22.226Z,71.30
2018-10-21T10:22:26.525Z,69.80
2018-10-21T10:24:33.601Z,68.70
2018-10-21T10:26:40.769Z,68.50
2018-10-21T10:28:45.217Z,69.00
2018-10-21T10:30:50.687Z,68.40
2018-10-21T10:32:55.456Z,67.40
2018-10-21T10:35:01.236Z,66.10
2018-10-21T10:37:06.739Z,67.80
2018-10-21T10:39:13.064Z,67.20
2018-10-21T10:41:20.315Z,66.50
2018-10-21T10:43:24.332Z,65.60
2018-10-21T10:45:28.475Z,65.00
2018-10-21T10:47:33.600Z,64.70
2018-10-21T10:49:37.666Z,64.20
2018-10-21T10:51:41.691Z,63.00
2018-10-21T10:53:47.186Z,63.00
2018-10-21T10:55:52.423Z,63.00
2018-10-21T10:57:56.483Z,62.80
2018-10-21T11:00:01.939Z,63.60
2018-10-21T11:02:05.923Z,64.40
2018-10-21T11:04:11.817Z,64.30
2018-10-21T11:06:16.350Z,64.20
2018-10-21T11:08:21.276Z,64.30
2018-10-21T11:10:26.004Z,64.50
2018-10-21T11:12:31.425Z,63.40
2018-10-21T11:14:36.783Z,63.20
2018-10-21T11:16:41.000Z,62.70
2018-10-21T11:18:45.681Z,62.90
2018-10-21T11:20:49.947Z,62.40
2018-10-21T11:22:56.717Z,61.60
2018-10-21T11:25:02.410Z,61.60
2018-10-21T11:27:07.142Z,60.00
2018-10-21T11:29:12.170Z,59.90
2018-10-21T11:31:16.936Z,61.20
2018-10-21T11:33:23.270Z,60.40
2018-10-21T11:35:27.847Z,59.90
2018-10-21T11:37:32.033Z,58.80
2018-10-21T11:39:36.097Z,59.60
2018-10-21T11:41:47.052Z,59.60
2018-10-21T11:43:52.436Z,59.40
2018-10-21T11:45:56.844Z,58.20
2018-10-21T11:48:04.544Z,57.90
2018-10-21T11:50:08.565Z,58.00
2018-10-21T11:52:14.488Z,57.70
2018-10-21T11:54:21.060Z,57.20
2018-10-21T11:56:25.188Z,56.60
2018-10-21T11:58:29.057Z,55.40
2018-10-21T12:00:32.982Z,55.60
2018-10-21T12:02:39.006Z,55.60
2018-10-21T12:04:43.204Z,55.90
2018-10-21T12:06:49.568Z,56.80
2018-10-21T12:08:56.446Z,56.90
2018-10-21T12:11:00.696Z,56.80
2018-10-21T12:13:12.170Z,56.00
2018-10-21T12:15:16.386Z,55.30
2018-10-21T12:17:20.369Z,56.30
2018-10-21T12:19:24.581Z,57.40
2018-10-21T12:21:29.154Z,58.60
2018-10-21T12:23:34.443Z,59.40
2018-10-21T12:25:41.356Z,58.90
2018-10-21T12:27:46.457Z,58.00
2018-10-21T12:29:52.772Z,58.00
2018-10-21T12:31:58.358Z,58.50
2018-10-21T12:34:03.283Z,58.50
2018-10-21T12:36:08.183Z,57.30
2018-10-21T12:38:13.834Z,57.10
2018-10-21T12:40:19.482Z,56.00
2018-10-21T12:42:25.090Z,55.70
2018-10-21T12:44:29.221Z,55.80
2018-10-21T12:46:33.260Z,55.90
2018-10-21T12:48:38.933Z,55.70
2018-10-21T12:50:43.598Z,55.30
2018-10-21T12:52:50.628Z,55.70
2018-10-21T12:54:57.579Z,55.00
2018-10-21T12:57:01.720Z,54.80
2018-10-21T12:59:06.273Z,55.70
2018-10-21T13:01:10.317Z,56.00
2018-10-21T13:03:14.419Z,56.10
2018-10-21T13:05:19.444Z,56.60
2018-10-21T13:07:24.163Z,56.70
2018-10-21T13:09:28.713Z,57.10
2018-10-21T13:11:33.703Z,57.70
2018-10-21T13:13:38.433Z,56.90
2018-10-21T13:15:46.163Z,56.10
2018-10-21T13:17:53.982Z,57.60
2018-10-21T13:20:02.296Z,57.70
2018-10-21T13:22:06.388Z,56.90
2018-10-21T13:24:10.508Z,56.60
2018-10-21T13:26:15.863Z,56.70
2018-10-21T13:28:20.703Z,56.50
2018-10-21T13:30:28.618Z,56.40
2018-10-21T13:32:35.573Z,56.50
2018-10-21T13:34:41.496Z,56.30
2018-10-21T13:36:45.723Z,56.10
2018-10-21T13:38:50.758Z,55.50
2018-10-21T13:40:54.827Z,56.00
2018-10-21T13:42:59.435Z,55.80
2018-10-21T13:45:05.996Z,55.60
2018-10-21T13:47:12.745Z,56.10
2018-10-21T13:49:17.633Z,56.70
2018-10-21T13:51:23.374Z,57.20
2018-10-21T13:53:27.358Z,57.80
2018-10-21T13:55:31.645Z,57.10
2018-10-21T13:57:36.581Z,56.90
2018-10-21T13:59:45.858Z,56.90
2018-10-21T14:01:51.617Z,57.30
2018-10-21T14:03:59.475Z,56.70
2018-10-21T14:06:06.787Z,56.00
2018-10-21T14:08:12.753Z,55.40
2018-10-21T14:10:18.009Z,54.70
2018-10-21T14:12:23.804Z,54.30
2018-10-21T14:14:30.952Z,55.40
2018-10-21T14:16:35.268Z,55.30
2018-10-21T14:18:39.777Z,55.80
2018-10-21T14:20:45.612Z,56.90
2018-10-21T14:22:50.646Z,56.90
2018-10-21T14:24:54.711Z,56.80
2018-10-21T14:26:59.133Z,56.60
2018-10-21T14:29:03.175Z,56.60
2018-10-21T14:31:07.192Z,55.70
2018-10-21T14:33:12.525Z,55.90
2018-10-21T14:35:16.459Z,55.60
2018-10-21T14:37:20.571Z,55.70
2018-10-21T14:39:27.452Z,54.80
2018-10-21T14:41:32.035Z,55.20
2018-10-21T14:43:37.268Z,53.60
2018-10-21T14:45:41.725Z,53.50
2018-10-21T14:47:45.882Z,53.30
2018-10-21T14:49:50.244Z,53.60
2018-10-21T14:51:54.655Z,54.60
2018-10-21T14:53:59.105Z,54.40
2018-10-21T14:56:03.341Z,55.10
2018-10-21T14:58:07.575Z,54.80
2018-10-21T15:00:15.739Z,54.60
2018-10-21T15:02:19.529Z,54.10
2018-10-21T15:04:24.984Z,53.80
2018-10-21T15:06:28.915Z,53.80
2018-10-21T15:08:34.205Z,53.60
2018-10-21T15:10:45.977Z,53.30
2018-10-21T15:12:49.968Z,53.40
2018-10-21T15:14:54.385Z,53.40
2018-10-21T15:16:58.559Z,52.90
2018-10-21T15:19:03.379Z,52.70
2018-10-21T15:21:07.746Z,52.10
2018-10-21T15:23:12.247Z,51.30
2018-10-21T15:25:16.421Z,50.70
2018-10-21T15:27:20.724Z,50.50
2018-10-21T15:29:24.823Z,50.20
2018-10-21T15:31:29.277Z,50.00
2018-10-21T15:33:34.650Z,49.90
2018-10-21T15:35:39.053Z,50.00
2018-10-21T15:37:44.019Z,50.30
2018-10-21T15:39:48.067Z,50.40
2018-10-21T15:41:53.755Z,50.50
2018-10-21T15:43:58.212Z,50.50
2018-10-21T15:46:02.353Z,50.60
2018-10-21T15:48:09.270Z,50.70
2018-10-21T15:50:13.318Z,51.30
2018-10-21T15:52:20.166Z,52.30
2018-10-21T15:54:25.554Z,53.20
2018-10-21T15:56:30.176Z,54.10
2018-10-21T15:58:35.700Z,55.00
2018-10-21T16:00:41.877Z,56.30
2018-10-21T16:02:46.857Z,57.40
2018-10-21T16:04:51.274Z,58.00
2018-10-21T16:06:55.728Z,58.20
2018-10-21T16:09:00.331Z,58.50
2018-10-21T16:11:05.155Z,59.80
2018-10-21T16:13:10.826Z,61.20
2018-10-21T16:15:17.639Z,62.30
2018-10-21T16:17:23.825Z,62.80
2018-10-21T16:19:28.563Z,63.20
2018-10-21T16:21:34.331Z,63.20
2018-10-21T16:23:38.248Z,63.80
2018-10-21T16:25:42.431Z,64.70
2018-10-21T16:27:46.610Z,65.20
2018-10-21T16:29:52.233Z,66.40
2018-10-21T16:31:57.131Z,67.30
2018-10-21T16:34:01.074Z,68.40
2018-10-21T16:36:06.456Z,69.00
2018-10-21T16:38:13.408Z,69.30
2018-10-21T16:40:18.737Z,69.90
2018-10-21T16:42:23.307Z,70.00
2018-10-21T16:44:27.826Z,69.60
2018-10-21T16:46:34.648Z,70.50
2018-10-21T16:48:43.566Z,71.70
2018-10-21T16:50:50.614Z,72.70
2018-10-21T16:52:56.146Z,74.40
2018-10-21T16:55:05.499Z,75.60
2018-10-21T16:57:16.370Z,76.80
2018-10-21T16:59:23.794Z,77.70
2018-10-21T17:01:33.533Z,78.10
2018-10-21T17:03:38.878Z,78.90
2018-10-21T17:05:43.351Z,79.60
2018-10-21T17:07:48.765Z,80.10
2018-10-21T17:09:55.829Z,80.40
2018-10-21T17:12:00.777Z,81.30
2018-10-21T17:14:08.350Z,82.00
2018-10-21T17:16:19.847Z,82.80
2018-10-21T17:18:27.394Z,83.00
2018-10-21T17:20:33.161Z,83.50
2018-10-21T17:25:16.049Z,84.50
2018-10-21T17:27:20.329Z,85.10
2018-10-21T17:29:28.355Z,86.00
2018-10-21T17:31:33.344Z,86.10
2018-10-21T17:33:38.981Z,86.60
2018-10-21T17:35:54.903Z,87.30
2018-10-21T17:38:00.740Z,87.70
2018-10-21T17:40:06.992Z,87.90
2018-10-21T17:42:12.582Z,88.20
2018-10-21T17:44:16.557Z,88.40
2018-10-21T17:46:20.583Z,89.00
2018-10-21T17:48:27.215Z,89.00
2018-10-21T17:50:32.193Z,89.30
2018-10-21T17:52:36.656Z,89.10
2018-10-21T17:54:40.664Z,88.90
2018-10-21T17:56:50.259Z,89.10
2018-10-21T17:58:54.133Z,89.70
2018-10-21T18:01:00.403Z,89.60
2018-10-21T18:03:08.039Z,89.50
2018-10-21T18:05:13.321Z,89.30
2018-10-21T18:07:21.707Z,90.00
2018-10-21T18:09:29.028Z,90.00
2018-10-21T18:11:33.035Z,90.20
2018-10-21T18:13:36.952Z,90.20
2018-10-21T18:15:40.869Z,90.20
2018-10-21T18:17:48.532Z,90.10
2018-10-21T18:19:53.704Z,90.20
2018-10-21T18:21:59.360Z,90.20
2018-10-21T18:24:06.307Z,90.20
2018-10-21T18:26:14.766Z,90.20
2018-10-21T18:28:19.212Z,90.20
2018-10-21T18:30:24.711Z,90.30
2018-10-21T18:32:28.961Z,90.20
2018-10-21T18:34:33.458Z,90.10
2018-10-21T18:36:37.427Z,90.00
2018-10-21T18:40:38.948Z,90.00
2018-10-21T18:42:43.742Z,89.60
2018-10-21T18:44:51.207Z,89.30
2018-10-21T18:46:57.256Z,89.20
2018-10-21T18:49:03.091Z,89.10
2018-10-21T18:51:08.193Z,89.10
2018-10-21T18:53:12.942Z,89.00
2018-10-21T18:55:17.236Z,89.20
2018-10-21T18:57:23.323Z,89.40
2018-10-21T18:59:28.387Z,89.60
2018-10-21T19:01:32.368Z,89.40
2018-10-21T19:03:36.890Z,89.10
2018-10-21T19:05:41.858Z,88.90
2018-10-21T19:07:46.701Z,88.70
2018-10-21T19:09:52.654Z,88.60
2018-10-21T19:11:58.530Z,89.20
2018-10-21T19:14:03.091Z,89.50
2018-10-21T19:16:07.456Z,89.60
2018-10-21T19:18:11.689Z,89.90
2018-10-21T19:20:16.743Z,89.90
2018-10-21T19:22:22.588Z,89.90
2018-10-21T19:24:31.046Z,89.50
2018-10-21T19:26:36.751Z,89.10
2018-10-21T19:28:43.845Z,88.40
2018-10-21T19:30:48.077Z,88.20
2018-10-21T19:32:54.093Z,88.00
2018-10-21T19:34:58.638Z,88.00
2018-10-21T19:37:04.041Z,87.90
2018-10-21T19:39:09.864Z,88.20
2018-10-21T19:41:16.641Z,88.50
2018-10-21T19:43:25.305Z,88.80
2018-10-21T19:45:30.193Z,89.20
2018-10-21T19:47:34.548Z,89.40
2018-10-21T19:49:40.320Z,89.80
2018-10-21T19:51:45.388Z,90.10
2018-10-21T19:53:51.960Z,90.20
2018-10-21T19:56:00.227Z,90.10
2018-10-21T19:58:05.732Z,89.90
2018-10-21T20:00:13.962Z,89.70
2018-10-21T20:02:18.464Z,89.50
2018-10-21T20:04:24.590Z,90.00
2018-10-21T20:06:30.121Z,90.00
2018-10-21T20:08:37.206Z,90.00
2018-10-21T20:10:42.665Z,90.00
2018-10-21T20:12:46.734Z,89.60
2018-10-21T20:14:51.523Z,89.30
2018-10-21T20:16:56.327Z,90.00
2018-10-21T20:19:03.734Z,90.30
2018-10-21T20:21:11.135Z,90.60
2018-10-21T20:23:15.217Z,90.70
2018-10-21T20:25:20.533Z,90.80
2018-10-21T20:27:24.875Z,90.80
2018-10-21T20:29:32.376Z,90.90
2018-10-21T20:31:37.087Z,91.10
2018-10-21T20:33:42.863Z,91.30
2018-10-21T20:35:49.722Z,91.10
2018-10-21T20:37:55.418Z,91.00
2018-10-21T20:39:59.415Z,90.70
2018-10-21T20:42:03.348Z,90.50
2018-10-21T20:44:07.412Z,90.40
2018-10-21T20:46:14.319Z,90.30
2018-10-21T20:48:18.290Z,90.30
2018-10-21T20:50:22.567Z,90.10
2018-10-21T20:52:28.740Z,90.10
2018-10-21T20:54:40.770Z,90.20
2018-10-21T20:56:44.811Z,90.40
2018-10-21T20:58:49.823Z,90.20
2018-10-21T21:00:59.283Z,90.10
2018-10-21T21:03:04.193Z,90.30
2018-10-21T21:05:09.288Z,90.60
2018-10-21T21:07:13.192Z,90.90
2018-10-21T21:09:17.326Z,90.60
2018-10-21T21:11:22.437Z,90.60
2018-10-21T21:13:26.617Z,90.40
2018-10-21T21:15:31.397Z,90.20
2018-10-21T21:17:35.870Z,90.40
2018-10-21T21:19:40.697Z,90.10
2018-10-21T21:21:44.683Z,90.40
2018-10-21T21:23:49.001Z,90.50
2018-10-21T21:25:52.995Z,90.80
2018-10-21T21:27:59.267Z,91.10
2018-10-21T21:30:03.317Z,91.00
2018-10-21T21:32:07.229Z,90.80
2018-10-21T21:34:12.523Z,90.70
2018-10-21T21:36:18.415Z,90.80
2018-10-21T21:38:23.547Z,90.80
2018-10-21T21:40:31.158Z,90.80
2018-10-21T21:42:37.462Z,90.90
2018-10-21T21:44:41.472Z,91.30
2018-10-21T21:46:46.737Z,91.20
2018-10-21T21:48:50.928Z,91.20
2018-10-21T21:50:54.910Z,91.30
2018-10-21T21:52:59.384Z,91.20
2018-10-21T21:55:03.543Z,91.20
2018-10-21T21:57:07.626Z,91.30
2018-10-21T21:59:11.817Z,91.40
2018-10-21T22:01:16.975Z,91.70
2018-10-21T22:03:21.218Z,91.90
2018-10-21T22:05:25.501Z,91.90
2018-10-21T22:07:32.904Z,91.80
2018-10-21T22:09:36.963Z,92.00
2018-10-21T22:11:43.941Z,92.10
2018-10-21T22:13:50.088Z,92.20
2018-10-21T22:15:54.492Z,92.20
2018-10-21T22:17:58.812Z,92.40
2018-10-21T22:20:02.749Z,92.50
2018-10-21T22:22:06.751Z,92.90
2018-10-21T22:24:13.613Z,93.10
2018-10-21T22:26:18.150Z,92.90
2018-10-21T22:28:23.077Z,92.70
2018-10-21T22:30:27.204Z,92.70
2018-10-21T22:32:32.746Z,92.40
2018-10-21T22:34:36.917Z,92.70
2018-10-21T22:36:41.159Z,92.30
2018-10-21T22:38:48.425Z,92.50
2018-10-21T22:40:53.226Z,92.50
2018-10-21T22:42:57.357Z,92.40
2018-10-21T22:45:01.286Z,92.50
2018-10-21T22:47:06.741Z,92.50
2018-10-21T22:49:11.651Z,92.70
2018-10-21T22:51:15.799Z,93.00
2018-10-21T22:53:19.830Z,93.30
2018-10-21T22:55:23.852Z,93.80
2018-10-21T22:57:31.318Z,93.40
2018-10-21T22:59:36.118Z,93.20
2018-10-21T23:01:40.328Z,93.10
2018-10-21T23:03:44.674Z,92.70
2018-10-21T23:05:49.017Z,92.80
2018-10-21T23:07:53.054Z,92.60
2018-10-21T23:09:57.199Z,92.60
2018-10-21T23:12:01.229Z,92.60
2018-10-21T23:14:05.384Z,92.70
2018-10-21T23:16:10.350Z,92.50
2018-10-21T23:18:14.458Z,92.40
2018-10-21T23:20:18.532Z,92.60
2018-10-21T23:22:25.224Z,92.70
2018-10-21T23:24:29.278Z,93.00
2018-10-21T23:26:33.540Z,93.30
2018-10-21T23:28:39.717Z,93.40
2018-10-21T23:30:46.764Z,93.50
2018-10-21T23:32:51.487Z,93.60
2018-10-21T23:34:56.779Z,93.40
2018-10-21T23:37:00.895Z,93.50
2018-10-21T23:39:05.997Z,93.60
2018-10-21T23:41:10.353Z,93.60
2018-10-21T23:43:14.221Z,93.60
2018-10-21T23:45:18.424Z,93.40
2018-10-21T23:47:26.578Z,93.30
2018-10-21T23:49:31.895Z,93.30
2018-10-21T23:51:36.263Z,93.30
2018-10-21T23:53:43.465Z,93.00
2018-10-21T23:55:49.080Z,92.90
2018-10-21T23:57:53.215Z,92.90
